createdAt,value
2022-08-17T00:02:25.988Z,96.60
2022-08-17T00:04:54.008Z,96.90
2022-08-17T00:07:20.852Z,96.90
2022-08-17T00:09:47.677Z,96.70
2022-08-17T00:12:41.925Z,96.80
2022-08-17T00:15:01.524Z,96.60
2022-08-17T00:17:28.458Z,96.30
2022-08-17T00:19:55.322Z,96.30
2022-08-17T00:22:34.207Z,96.10
2022-08-17T00:25:05.299Z,96.10
2022-08-17T00:27:32.231Z,96.00
2022-08-17T00:29:59.095Z,95.90
2022-08-17T00:33:11.652Z,96.00
2022-08-17T00:35:18.354Z,96.00
2022-08-17T00:37:45.452Z,95.90
2022-08-17T00:40:13.480Z,95.90
2022-08-17T00:42:40.575Z,95.90
2022-08-17T00:45:08.841Z,95.90
2022-08-17T00:47:36.151Z,95.70
2022-08-17T00:50:04.159Z,95.70
2022-08-17T00:52:34.920Z,95.70
2022-08-17T00:55:01.871Z,95.90
2022-08-17T00:57:31.263Z,95.70
2022-08-17T01:00:05.290Z,95.90
2022-08-17T01:02:42.067Z,95.70
2022-08-17T01:05:18.443Z,95.80
2022-08-17T01:07:45.667Z,95.70
2022-08-17T01:10:59.824Z,95.70
2022-08-17T01:13:02.388Z,95.70
2022-08-17T01:15:33.542Z,95.70
2022-08-17T01:18:00.399Z,95.70
2022-08-17T01:20:27.524Z,95.70
2022-08-17T01:22:54.434Z,95.70
2022-08-17T01:25:21.407Z,95.70
2022-08-17T01:27:48.582Z,95.70
2022-08-17T01:30:56.530Z,95.60
2022-08-17T01:33:02.351Z,95.50
2022-08-17T01:35:29.226Z,95.40
2022-08-17T01:37:56.058Z,95.50
2022-08-17T01:40:35.543Z,95.50
2022-08-17T01:43:24.831Z,96.10
2022-08-17T01:46:02.628Z,95.70
2022-08-17T01:48:35.488Z,95.70
2022-08-17T01:51:02.478Z,96.00
2022-08-17T01:53:33.257Z,96.00
2022-08-17T01:56:07.485Z,96.10
2022-08-17T01:58:34.765Z,96.00
2022-08-17T02:01:02.776Z,96.10
2022-08-17T02:03:29.998Z,96.00
2022-08-17T02:05:56.945Z,96.00
2022-08-17T02:08:37.084Z,96.10
2022-08-17T02:11:11.289Z,96.10
2022-08-17T02:13:38.767Z,96.20
2022-08-17T02:16:05.756Z,96.60
2022-08-17T02:18:32.614Z,96.60
2022-08-17T02:20:59.500Z,96.60
2022-08-17T02:23:27.673Z,96.60
2022-08-17T02:25:54.514Z,96.60
2022-08-17T02:28:21.392Z,96.60
2022-08-17T02:30:59.370Z,96.50
2022-08-17T02:33:42.555Z,96.60
2022-08-17T02:36:11.554Z,96.60
2022-08-17T02:38:38.804Z,96.70
2022-08-17T02:41:05.772Z,96.60
2022-08-17T02:43:32.596Z,96.60
2022-08-17T02:46:00.214Z,96.70
2022-08-17T02:48:30.521Z,96.60
2022-08-17T02:50:58.307Z,96.60
2022-08-17T02:53:25.586Z,96.60
2022-08-17T02:55:52.840Z,96.70
2022-08-17T02:58:34.481Z,96.70
2022-08-17T03:01:03.535Z,96.80
2022-08-17T03:03:30.401Z,96.50
2022-08-17T03:05:57.217Z,96.50
2022-08-17T03:08:25.377Z,96.50
2022-08-17T03:10:52.346Z,96.40
2022-08-17T03:13:19.357Z,96.50
2022-08-17T03:15:46.616Z,96.70
2022-08-17T03:18:19.312Z,96.40
2022-08-17T03:20:52.562Z,96.40
2022-08-17T03:23:23.666Z,96.50
2022-08-17T03:25:53.152Z,96.40
2022-08-17T03:28:20.575Z,96.40
2022-08-17T03:30:47.534Z,96.40
2022-08-17T03:33:14.670Z,96.60
2022-08-17T03:35:41.736Z,96.70
2022-08-17T03:38:11.998Z,96.90
2022-08-17T03:40:58.835Z,96.90
2022-08-17T03:43:26.718Z,96.70
2022-08-17T03:46:27.900Z,96.70
2022-08-17T03:49:18.099Z,96.70
2022-08-17T03:52:03.326Z,96.70
2022-08-17T03:54:48.578Z,96.70
2022-08-17T03:57:15.461Z,96.80
2022-08-17T03:59:42.401Z,96.90
2022-08-17T04:02:26.369Z,96.90
2022-08-17T04:04:53.861Z,97.10
2022-08-17T04:07:21.831Z,96.80
2022-08-17T04:09:48.939Z,97.10
2022-08-17T04:12:16.958Z,97.20
2022-08-17T04:14:52.977Z,97.20
2022-08-17T04:17:26.096Z,97.10
2022-08-17T04:19:53.116Z,97.10
2022-08-17T04:22:30.732Z,97.20
2022-08-17T04:25:01.813Z,96.90
2022-08-17T04:27:28.597Z,97.00
2022-08-17T04:29:56.198Z,97.30
2022-08-17T04:32:59.203Z,97.20
2022-08-17T04:35:10.249Z,97.10
2022-08-17T04:37:37.094Z,96.90
2022-08-17T04:40:23.069Z,96.90
2022-08-17T04:43:03.587Z,96.80
2022-08-17T04:45:32.134Z,97.00
2022-08-17T04:48:00.388Z,96.80
2022-08-17T04:50:27.609Z,97.00
2022-08-17T04:52:56.610Z,97.00
2022-08-17T04:55:23.655Z,97.00
2022-08-17T04:57:50.622Z,96.80
2022-08-17T05:00:17.702Z,97.00
2022-08-17T05:02:49.758Z,97.20
2022-08-17T05:05:21.342Z,97.20
2022-08-17T05:07:51.855Z,97.50
2022-08-17T05:10:20.037Z,97.50
2022-08-17T05:12:47.038Z,97.40
2022-08-17T05:15:17.132Z,97.30
2022-08-17T05:17:46.287Z,97.30
2022-08-17T05:20:13.123Z,97.20
2022-08-17T05:22:54.359Z,97.10
2022-08-17T05:25:26.758Z,97.20
2022-08-17T05:27:54.530Z,97.00
2022-08-17T05:30:21.671Z,97.20
2022-08-17T05:32:52.659Z,97.40
2022-08-17T05:35:19.660Z,97.40
2022-08-17T05:37:46.467Z,97.20
2022-08-17T05:40:13.695Z,97.20
2022-08-17T05:42:40.637Z,97.30
2022-08-17T05:45:08.163Z,97.30
2022-08-17T05:47:34.992Z,97.60
2022-08-17T05:50:02.137Z,97.60
2022-08-17T05:52:46.630Z,97.60
2022-08-17T05:55:16.349Z,97.80
2022-08-17T05:58:08.671Z,97.70
2022-08-17T06:00:52.092Z,97.60
2022-08-17T06:03:37.175Z,97.60
2022-08-17T06:06:10.133Z,97.90
2022-08-17T06:08:45.987Z,97.50
2022-08-17T06:11:20.470Z,97.70
2022-08-17T06:14:22.113Z,97.50
2022-08-17T06:16:55.781Z,97.50
2022-08-17T06:19:44.335Z,97.40
2022-08-17T06:22:13.043Z,97.70
2022-08-17T06:24:43.764Z,97.40
2022-08-17T06:27:30.268Z,97.40
2022-08-17T06:30:13.650Z,97.50
2022-08-17T06:32:44.774Z,97.40
2022-08-17T06:35:13.105Z,97.40
2022-08-17T06:37:48.838Z,97.50
2022-08-17T06:40:34.586Z,97.50
2022-08-17T06:43:14.000Z,97.30
2022-08-17T06:45:49.505Z,97.30
2022-08-17T06:48:24.724Z,97.40
2022-08-17T06:50:53.451Z,97.40
2022-08-17T06:53:25.081Z,97.70
2022-08-17T06:55:57.227Z,97.70
2022-08-17T06:58:29.569Z,97.70
2022-08-17T07:00:59.560Z,97.70
2022-08-17T07:03:38.451Z,97.70
2022-08-17T07:06:06.537Z,97.80
2022-08-17T07:08:56.120Z,97.80
2022-08-17T07:11:28.097Z,98.20
2022-08-17T07:13:54.985Z,98.10
2022-08-17T07:16:32.590Z,98.10
2022-08-17T07:18:59.995Z,98.30
2022-08-17T07:21:46.022Z,98.30
2022-08-17T07:24:28.130Z,98.30
2022-08-17T07:27:10.330Z,98.40
2022-08-17T07:29:50.736Z,98.50
2022-08-17T07:32:20.320Z,98.20
2022-08-17T07:35:11.211Z,98.20
2022-08-17T07:37:55.823Z,98.60
2022-08-17T07:40:32.050Z,98.30
2022-08-17T07:43:03.242Z,98.40
2022-08-17T07:45:50.877Z,98.30
2022-08-17T07:48:20.693Z,98.20
2022-08-17T07:50:49.636Z,98.10
2022-08-17T07:53:19.510Z,98.00
2022-08-17T07:55:46.496Z,98.00
2022-08-17T07:58:18.006Z,97.90
2022-08-17T08:00:45.566Z,97.90
2022-08-17T08:03:32.000Z,97.90
2022-08-17T08:06:01.935Z,97.90
2022-08-17T08:08:42.291Z,97.90
2022-08-17T08:11:11.510Z,98.00
2022-08-17T08:13:45.070Z,97.80
2022-08-17T08:16:17.587Z,97.80
2022-08-17T08:18:54.044Z,97.70
2022-08-17T08:21:30.110Z,97.50
2022-08-17T08:24:15.917Z,97.40
2022-08-17T08:27:21.858Z,97.30
2022-08-17T08:29:52.759Z,97.10
2022-08-17T08:32:51.888Z,97.40
2022-08-17T08:35:37.269Z,97.10
2022-08-17T08:38:14.785Z,96.90
2022-08-17T08:41:03.099Z,96.50
2022-08-17T08:43:37.007Z,96.30
2022-08-17T08:46:19.628Z,96.50
2022-08-17T08:49:12.067Z,96.30
2022-08-17T08:51:46.551Z,96.30
2022-08-17T08:54:34.699Z,96.50
2022-08-17T08:57:33.688Z,96.30
2022-08-17T09:00:17.203Z,96.00
2022-08-17T09:02:52.679Z,95.80
2022-08-17T09:05:53.477Z,96.00
2022-08-17T09:08:32.271Z,95.00
2022-08-17T09:11:35.647Z,95.30
2022-08-17T09:14:46.468Z,95.00
2022-08-17T09:17:39.751Z,94.80
2022-08-17T09:20:28.013Z,94.00
2022-08-17T09:23:03.874Z,93.90
2022-08-17T09:25:32.555Z,94.10
2022-08-17T09:28:03.677Z,93.80
2022-08-17T09:30:43.699Z,94.20
2022-08-17T09:33:11.566Z,93.90
2022-08-17T09:35:40.167Z,93.80
2022-08-17T09:38:30.432Z,92.90
2022-08-17T09:41:01.707Z,93.40
2022-08-17T09:43:39.459Z,91.40
2022-08-17T09:46:19.332Z,92.10
2022-08-17T09:49:02.139Z,91.80
2022-08-17T09:51:32.647Z,91.60
2022-08-17T09:54:15.119Z,92.00
2022-08-17T09:57:32.196Z,91.70
2022-08-17T10:00:16.093Z,91.10
2022-08-17T10:03:00.462Z,92.10
2022-08-17T10:05:38.948Z,91.30
2022-08-17T10:08:43.222Z,91.80
2022-08-17T10:11:48.419Z,90.50
2022-08-17T10:14:44.293Z,90.60
2022-08-17T10:17:50.658Z,90.40
2022-08-17T10:20:23.098Z,88.60
2022-08-17T10:23:23.891Z,89.00
2022-08-17T10:26:14.429Z,88.30
2022-08-17T10:28:55.338Z,89.30
2022-08-17T10:31:35.644Z,86.50
2022-08-17T10:34:09.327Z,85.00
2022-08-17T10:36:52.393Z,85.50
2022-08-17T10:39:28.457Z,84.80
2022-08-17T10:41:57.740Z,87.10
2022-08-17T10:44:47.272Z,87.10
2022-08-17T10:47:15.960Z,84.40
2022-08-17T10:49:47.848Z,85.90
2022-08-17T10:52:20.810Z,86.80
2022-08-17T10:54:58.306Z,83.70
2022-08-17T10:57:31.801Z,83.20
2022-08-17T11:00:04.019Z,83.70
2022-08-17T11:02:33.391Z,86.30
2022-08-17T11:05:32.228Z,84.70
2022-08-17T11:08:01.651Z,84.50
2022-08-17T11:10:42.171Z,85.50
2022-08-17T11:13:11.173Z,85.60
2022-08-17T11:15:49.496Z,85.90
2022-08-17T11:18:22.340Z,84.40
2022-08-17T11:21:25.307Z,83.70
2022-08-17T11:24:07.946Z,83.30
2022-08-17T11:26:37.287Z,82.70
2022-08-17T11:29:17.511Z,83.20
2022-08-17T11:31:47.446Z,82.10
2022-08-17T11:34:20.038Z,83.30
2022-08-17T11:36:56.126Z,82.30
2022-08-17T11:39:52.045Z,80.20
2022-08-17T11:42:43.599Z,80.40
2022-08-17T11:45:45.303Z,80.00
2022-08-17T11:49:06.449Z,81.00
2022-08-17T11:52:01.564Z,79.60
2022-08-17T11:54:34.864Z,78.40
2022-08-17T11:57:29.251Z,79.20
2022-08-17T11:59:59.036Z,78.90
2022-08-17T12:02:28.014Z,81.90
2022-08-17T12:05:22.894Z,79.70
2022-08-17T12:07:59.256Z,80.00
2022-08-17T12:10:31.985Z,80.60
2022-08-17T12:13:10.826Z,82.10
2022-08-17T12:15:41.527Z,81.60
2022-08-17T12:18:08.383Z,81.90
2022-08-17T12:20:38.364Z,81.60
2022-08-17T12:23:22.358Z,81.90
2022-08-17T12:26:08.957Z,80.80
2022-08-17T12:28:38.752Z,80.00
2022-08-17T12:31:25.400Z,81.90
2022-08-17T12:33:52.566Z,81.20
2022-08-17T12:36:22.177Z,81.70
2022-08-17T12:39:21.450Z,81.90
2022-08-17T12:41:50.762Z,81.70
2022-08-17T12:44:18.970Z,82.10
2022-08-17T12:47:19.397Z,81.60
2022-08-17T12:49:50.331Z,81.70
2022-08-17T12:52:28.412Z,82.10
2022-08-17T12:55:01.927Z,82.10
2022-08-17T12:57:54.088Z,81.90
2022-08-17T13:00:22.354Z,81.60
2022-08-17T13:02:52.985Z,81.70
2022-08-17T13:05:31.836Z,82.80
2022-08-17T13:07:59.541Z,82.50
2022-08-17T13:10:33.356Z,83.20
2022-08-17T13:13:05.191Z,82.50
2022-08-17T13:15:44.552Z,82.80
2022-08-17T13:18:33.813Z,82.60
2022-08-17T13:21:01.127Z,83.00
2022-08-17T13:23:31.415Z,83.80
2022-08-17T13:26:14.576Z,84.20
2022-08-17T13:28:48.014Z,84.10
2022-08-17T13:31:39.465Z,84.40
2022-08-17T13:34:25.430Z,84.50
2022-08-17T13:37:14.064Z,87.90
2022-08-17T13:39:41.374Z,87.50
2022-08-17T13:42:30.808Z,87.70
2022-08-17T13:44:57.893Z,89.80
2022-08-17T13:47:24.867Z,88.60
2022-08-17T13:49:51.697Z,89.50
2022-08-17T13:52:52.213Z,89.40
2022-08-17T13:55:21.522Z,90.20
2022-08-17T13:57:49.628Z,90.10
2022-08-17T14:00:34.076Z,88.00
2022-08-17T14:03:01.976Z,87.40
2022-08-17T14:05:29.604Z,87.00
2022-08-17T14:07:57.636Z,86.70
2022-08-17T14:10:25.255Z,86.70
2022-08-17T14:12:52.769Z,86.30
2022-08-17T14:15:24.599Z,85.80
2022-08-17T14:18:11.571Z,85.90
2022-08-17T14:20:39.646Z,85.70
2022-08-17T14:23:08.241Z,85.50
2022-08-17T14:25:35.084Z,83.90
2022-08-17T14:28:02.231Z,83.40
2022-08-17T14:30:30.082Z,83.40
2022-08-17T14:32:58.002Z,83.30
2022-08-17T14:35:25.121Z,83.70
2022-08-17T14:37:52.737Z,81.90
2022-08-17T14:40:24.499Z,82.00
2022-08-17T14:42:53.073Z,83.20
2022-08-17T14:45:30.336Z,83.60
2022-08-17T14:48:01.318Z,84.20
2022-08-17T14:50:28.099Z,84.80
2022-08-17T14:52:58.204Z,85.40
2022-08-17T14:55:26.310Z,85.60
2022-08-17T14:57:53.339Z,86.00
2022-08-17T15:00:20.335Z,86.40
2022-08-17T15:02:55.252Z,86.20
2022-08-17T15:05:23.435Z,86.60
2022-08-17T15:07:50.709Z,87.30
2022-08-17T15:10:17.791Z,88.20
2022-08-17T15:12:44.598Z,88.50
2022-08-17T15:15:13.254Z,89.30
2022-08-17T15:17:44.180Z,89.30
2022-08-17T15:20:15.343Z,89.50
2022-08-17T15:22:42.601Z,89.40
2022-08-17T15:25:10.496Z,89.90
2022-08-17T15:27:37.434Z,89.20
2022-08-17T15:30:05.204Z,89.10
2022-08-17T15:32:35.910Z,88.90
2022-08-17T15:35:03.142Z,88.80
2022-08-17T15:37:31.824Z,88.20
2022-08-17T15:40:00.703Z,88.30
2022-08-17T15:42:28.060Z,88.90
2022-08-17T15:44:55.266Z,89.50
2022-08-17T15:47:22.682Z,90.50
2022-08-17T15:49:50.656Z,90.60
2022-08-17T15:52:23.240Z,90.80
2022-08-17T15:54:51.235Z,91.30
2022-08-17T15:57:18.320Z,91.70
2022-08-17T15:59:46.231Z,92.00
2022-08-17T16:03:13.420Z,92.70
2022-08-17T16:05:14.147Z,93.20
2022-08-17T16:07:44.568Z,93.60
2022-08-17T16:10:16.659Z,92.30
2022-08-17T16:12:46.093Z,92.20
2022-08-17T16:15:13.794Z,91.30
2022-08-17T16:17:43.757Z,91.50
2022-08-17T16:20:20.697Z,91.60
2022-08-17T16:22:48.330Z,91.70
2022-08-17T16:25:18.788Z,91.70
2022-08-17T16:27:46.838Z,91.60
2022-08-17T16:30:17.366Z,91.60
2022-08-17T16:32:45.032Z,91.30
2022-08-17T16:35:12.182Z,91.20
2022-08-17T16:37:40.379Z,91.00
2022-08-17T16:40:12.891Z,91.10
2022-08-17T16:42:39.988Z,91.30
2022-08-17T16:45:16.743Z,91.10
2022-08-17T16:47:43.783Z,91.20
2022-08-17T16:50:17.552Z,91.20
2022-08-17T16:52:47.794Z,91.30
2022-08-17T16:55:15.663Z,91.30
2022-08-17T16:57:50.393Z,91.30
2022-08-17T17:00:17.910Z,91.20
2022-08-17T17:02:47.324Z,91.00
2022-08-17T17:05:24.387Z,91.10
2022-08-17T17:07:55.429Z,91.20
2022-08-17T17:10:43.292Z,91.30
2022-08-17T17:13:19.067Z,91.30
2022-08-17T17:15:47.692Z,91.20
2022-08-17T17:18:15.330Z,91.20
2022-08-17T17:20:54.000Z,91.30
2022-08-17T17:23:48.469Z,91.30
2022-08-17T17:26:28.692Z,91.50
2022-08-17T17:29:23.229Z,92.00
2022-08-17T17:32:01.179Z,91.80
2022-08-17T17:34:29.430Z,91.70
2022-08-17T17:36:58.111Z,92.00
2022-08-17T17:39:41.525Z,92.40
2022-08-17T17:42:14.260Z,92.90
2022-08-17T17:44:44.763Z,92.50
2022-08-17T17:47:12.610Z,92.60
2022-08-17T17:49:41.811Z,92.60
2022-08-17T17:52:27.170Z,92.70
2022-08-17T17:55:09.510Z,93.00
2022-08-17T17:57:51.738Z,93.40
2022-08-17T18:00:51.067Z,93.30
2022-08-17T18:03:26.217Z,93.50
2022-08-17T18:06:12.584Z,93.60
2022-08-17T18:09:01.883Z,94.00
2022-08-17T18:12:11.666Z,93.40
2022-08-17T18:14:41.294Z,94.20
2022-08-17T18:17:08.085Z,93.60
2022-08-17T18:19:40.089Z,93.60
2022-08-17T18:22:14.534Z,93.80
2022-08-17T18:24:44.014Z,93.90
2022-08-17T18:27:34.771Z,93.90
2022-08-17T18:30:14.435Z,94.40
2022-08-17T18:32:43.477Z,94.10
2022-08-17T18:35:10.341Z,94.60
2022-08-17T18:37:51.588Z,94.70
2022-08-17T18:40:21.367Z,94.80
2022-08-17T18:43:08.305Z,94.50
2022-08-17T18:45:35.126Z,94.90
2022-08-17T18:48:03.233Z,94.20
2022-08-17T18:50:41.372Z,94.40
2022-08-17T18:53:31.726Z,95.00
2022-08-17T18:56:25.783Z,94.80
2022-08-17T18:59:04.307Z,95.00
2022-08-17T19:01:53.278Z,95.00
2022-08-17T19:04:41.917Z,94.90
2022-08-17T19:07:23.746Z,95.10
2022-08-17T19:10:11.545Z,94.70
2022-08-17T19:13:00.394Z,95.40
2022-08-17T19:15:34.223Z,94.90
2022-08-17T19:18:22.975Z,94.90
2022-08-17T19:21:03.818Z,94.70
2022-08-17T19:23:53.713Z,95.00
2022-08-17T19:26:53.662Z,94.60
2022-08-17T19:29:32.145Z,94.90
2022-08-17T19:32:01.219Z,95.00
2022-08-17T19:34:34.029Z,94.80
2022-08-17T19:37:08.848Z,94.90
2022-08-17T19:39:50.825Z,94.90
2022-08-17T19:42:47.543Z,95.20
2022-08-17T19:45:34.981Z,95.30
2022-08-17T19:48:35.462Z,95.40
2022-08-17T19:51:15.645Z,95.50
2022-08-17T19:54:04.770Z,95.40
2022-08-17T19:56:51.157Z,95.50
2022-08-17T19:59:27.118Z,95.60
2022-08-17T20:02:01.141Z,95.40
2022-08-17T20:04:39.586Z,95.10
2022-08-17T20:07:08.298Z,95.60
2022-08-17T20:10:05.612Z,95.60
2022-08-17T20:12:37.968Z,96.00
2022-08-17T20:15:12.753Z,96.10
2022-08-17T20:17:43.578Z,95.70
2022-08-17T20:20:43.215Z,95.60
2022-08-17T20:23:41.335Z,96.30
2022-08-17T20:26:30.532Z,96.00
2022-08-17T20:29:16.032Z,96.30
2022-08-17T20:31:45.984Z,96.30
2022-08-17T20:34:36.605Z,95.90
2022-08-17T20:37:13.492Z,96.20
2022-08-17T20:39:44.447Z,96.20
2022-08-17T20:42:20.592Z,96.00
2022-08-17T20:44:52.557Z,96.20
2022-08-17T20:47:26.902Z,96.20
2022-08-17T20:50:01.230Z,96.60
2022-08-17T20:52:56.112Z,96.20
2022-08-17T20:55:51.658Z,96.40
2022-08-17T20:58:22.974Z,96.20
2022-08-17T21:00:58.930Z,95.90
2022-08-17T21:03:48.003Z,96.30
2022-08-17T21:06:17.910Z,96.20
2022-08-17T21:08:59.317Z,96.10
2022-08-17T21:11:56.678Z,96.20
2022-08-17T21:14:58.663Z,96.20
2022-08-17T21:17:35.690Z,96.40
2022-08-17T21:20:13.403Z,96.30
2022-08-17T21:22:46.134Z,96.30
2022-08-17T21:25:39.091Z,96.10
2022-08-17T21:28:34.004Z,96.20
2022-08-17T21:31:08.334Z,96.00
2022-08-17T21:33:39.584Z,96.00
2022-08-17T21:36:12.526Z,96.10
2022-08-17T21:38:48.834Z,96.40
2022-08-17T21:41:29.138Z,96.40
2022-08-17T21:44:05.259Z,96.30
2022-08-17T21:46:36.873Z,96.20
2022-08-17T21:49:13.291Z,96.00
2022-08-17T21:51:54.413Z,96.10
2022-08-17T21:54:36.419Z,96.30
2022-08-17T21:57:05.866Z,96.30
2022-08-17T21:59:39.257Z,96.40
2022-08-17T22:02:20.076Z,96.60
2022-08-17T22:05:02.260Z,96.50
2022-08-17T22:07:39.425Z,96.80
2022-08-17T22:10:08.035Z,97.10
2022-08-17T22:12:34.951Z,96.40
2022-08-17T22:15:05.872Z,96.40
2022-08-17T22:17:36.891Z,96.80
2022-08-17T22:20:16.706Z,97.30
2022-08-17T22:23:05.056Z,97.30
2022-08-17T22:25:33.631Z,97.20
2022-08-17T22:28:02.084Z,97.00
2022-08-17T22:30:33.043Z,97.10
2022-08-17T22:33:00.526Z,97.10
2022-08-17T22:35:32.714Z,97.30
2022-08-17T22:38:18.240Z,97.20
2022-08-17T22:40:49.798Z,97.50
2022-08-17T22:43:17.603Z,97.10
2022-08-17T22:45:46.363Z,97.10
2022-08-17T22:48:13.184Z,97.20
2022-08-17T22:50:40.131Z,97.20
2022-08-17T22:53:34.012Z,97.20
2022-08-17T22:56:19.373Z,97.50
2022-08-17T22:59:14.846Z,97.20
2022-08-17T23:01:42.150Z,97.50
2022-08-17T23:04:16.067Z,97.20
2022-08-17T23:06:43.122Z,97.10
2022-08-17T23:09:10.112Z,97.00
2022-08-17T23:11:49.157Z,97.00
2022-08-17T23:14:19.110Z,97.20
2022-08-17T23:16:46.595Z,97.10
2022-08-17T23:19:15.365Z,97.20
2022-08-17T23:21:43.766Z,97.20
2022-08-17T23:24:10.886Z,97.40
2022-08-17T23:26:39.164Z,97.10
2022-08-17T23:29:06.678Z,96.90
2022-08-17T23:31:34.754Z,96.80
2022-08-17T23:34:02.243Z,96.80
2022-08-17T23:36:29.510Z,96.80
2022-08-17T23:38:56.776Z,96.70
2022-08-17T23:41:23.622Z,96.60
2022-08-17T23:43:51.710Z,96.50
2022-08-17T23:46:19.983Z,96.50
2022-08-17T23:48:47.651Z,96.50
2022-08-17T23:51:15.150Z,96.50
2022-08-17T23:53:47.615Z,96.60
2022-08-17T23:56:14.614Z,96.50
2022-08-17T23:58:42.625Z,96.60
